Time;durP1;ratioP1;P1;durP2;ratioP2;P2;SDS_P1;SDS_P2;PMS_P1;PMS_P2;Temp;Humidity;BMP_temperature;BMP_pressure;BME280_temperature;BME280_humidity;BME280_pressure;Samples;Min_cycle;Max_cycle;Signal;HPM_P1;HPM_P2
2023/12/15 00:01:03;;;;;;;5.57;4.05;;;8.50;86.50;;;;;;5062710;28;20031;-60
2023/12/15 00:03:29;;;;;;;5.18;3.17;;;8.50;86.60;;;;;;5055940;28;20029;-60
2023/12/15 00:05:57;;;;;;;9.55;3.75;;;8.50;86.60;;;;;;5047428;28;20036;-70
2023/12/15 00:08:23;;;;;;;7.80;4.18;;;8.50;86.70;;;;;;5053855;28;20045;-70
2023/12/15 00:10:49;;;;;;;6.68;3.38;;;8.50;87.00;;;;;;5050212;28;20387;-71
2023/12/15 00:13:15;;;;;;;5.57;3.85;;;8.40;87.10;;;;;;5054338;28;20112;-60
2023/12/15 00:15:41;;;;;;;20.33;5.13;;;8.40;87.30;;;;;;5050029;28;20423;-60
2023/12/15 00:18:07;;;;;;;6.00;4.15;;;8.30;87.30;;;;;;5051854;28;20017;-60
2023/12/15 00:20:32;;;;;;;4.97;3.20;;;8.30;87.40;;;;;;5050629;28;20037;-70
2023/12/15 00:22:58;;;;;;;8.85;3.70;;;8.40;87.40;;;;;;5054939;28;20029;-60
2023/12/15 00:25:24;;;;;;;5.32;3.80;;;8.40;87.20;;;;;;5048460;28;20056;-60
2023/12/15 00:27:50;;;;;;;9.30;3.28;;;8.40;87.10;;;;;;5055968;28;20087;-71
2023/12/15 00:30:15;;;;;;;6.47;3.25;;;8.50;87.10;;;;;;5053356;28;20063;-71
2023/12/15 00:32:41;;;;;;;5.55;3.65;;;8.50;87.00;;;;;;5051953;28;20053;-71
2023/12/15 00:35:07;;;;;;;6.07;3.97;;;8.60;87.00;;;;;;5035628;28;20087;-69
2023/12/15 00:37:33;;;;;;;9.73;4.80;;;8.50;87.00;;;;;;5047768;28;20033;-58
2023/12/15 00:39:58;;;;;;;6.32;3.90;;;8.50;87.30;;;;;;5058942;28;20036;-68
2023/12/15 00:42:24;;;;;;;5.40;3.28;;;8.40;87.40;;;;;;5048955;28;20028;-71
2023/12/15 00:44:50;;;;;;;7.53;4.60;;;8.40;87.50;;;;;;5049151;28;20086;-69
2023/12/15 00:47:16;;;;;;;6.53;3.55;;;8.40;87.80;;;;;;5053110;28;20626;-69
2023/12/15 00:49:41;;;;;;;4.82;3.55;;;8.40;87.80;;;;;;5051626;28;20049;-69
2023/12/15 00:52:07;;;;;;;9.90;3.70;;;8.40;87.70;;;;;;5055544;28;20067;-58
2023/12/15 00:54:33;;;;;;;15.57;5.18;;;8.40;87.80;;;;;;5058441;28;20020;-58
2023/12/15 00:56:59;;;;;;;9.80;5.00;;;8.40;88.00;;;;;;5050006;28;20037;-60
2023/12/15 00:59:26;;;;;;;4.93;3.40;;;8.40;88.10;;;;;;5049649;28;20060;-71
2023/12/15 01:01:52;;;;;;;9.15;4.32;;;8.40;88.20;;;;;;5055688;28;20084;-71
2023/12/15 01:04:17;;;;;;;8.98;4.95;;;8.40;88.30;;;;;;5046956;28;20060;-58
2023/12/15 01:06:43;;;;;;;8.07;4.80;;;8.40;88.50;;;;;;5045533;28;20047;-69
2023/12/15 01:09:09;;;;;;;10.15;4.85;;;8.40;88.50;;;;;;5042495;28;20423;-68
2023/12/15 01:11:36;;;;;;;10.60;4.90;;;8.50;88.50;;;;;;5057993;28;20148;-69
2023/12/15 01:14:02;;;;;;;11.63;6.57;;;8.50;88.50;;;;;;5052802;28;20457;-58
2023/12/15 01:16:28;;;;;;;9.10;5.97;;;8.50;88.60;;;;;;5042761;28;20484;-58
2023/12/15 01:18:54;;;;;;;8.32;5.47;;;8.50;88.60;;;;;;5044813;28;20102;-57
2023/12/15 01:21:19;;;;;;;10.00;4.75;;;8.50;88.60;;;;;;5044026;28;20112;-58
2023/12/15 01:23:45;;;;;;;15.05;6.50;;;8.60;88.60;;;;;;5077673;28;20102;-57
2023/12/15 01:26:11;;;;;;;16.85;8.02;;;8.60;88.80;;;;;;5045186;28;20483;-57
2023/12/15 01:28:37;;;;;;;13.55;7.55;;;8.60;88.90;;;;;;5050944;28;20037;-69
2023/12/15 01:31:02;;;;;;;9.20;6.18;;;8.60;89.10;;;;;;5049383;28;20013;-69
2023/12/15 01:33:29;;;;;;;15.02;7.82;;;8.60;89.20;;;;;;5046755;28;20484;-69
2023/12/15 01:35:55;;;;;;;12.48;7.68;;;8.60;89.40;;;;;;5047706;28;20472;-69
2023/12/15 01:38:21;;;;;;;14.55;7.60;;;8.50;89.70;;;;;;5053679;28;20033;-69
2023/12/15 01:40:47;;;;;;;13.25;7.80;;;8.50;89.80;;;;;;5047174;28;20029;-69
2023/12/15 01:43:13;;;;;;;19.95;8.30;;;8.50;89.70;;;;;;5045862;28;20407;-69
2023/12/15 01:45:39;;;;;;;12.02;6.93;;;8.60;89.80;;;;;;5048010;28;20029;-69
2023/12/15 01:48:06;;;;;;;21.25;9.05;;;8.60;89.70;;;;;;5050299;28;20112;-71
2023/12/15 01:50:32;;;;;;;15.70;8.75;;;8.60;89.70;;;;;;5051273;28;20032;-69
2023/12/15 01:52:58;;;;;;;13.10;8.32;;;8.60;89.70;;;;;;5046814;28;20381;-69
2023/12/15 01:55:24;;;;;;;15.20;8.43;;;8.60;90.00;;;;;;5052702;28;20435;-58
2023/12/15 01:57:50;;;;;;;17.88;9.75;;;8.50;90.00;;;;;;5049841;28;20025;-58
2023/12/15 02:00:15;;;;;;;22.90;10.93;;;8.50;90.00;;;;;;5055426;28;20028;-58
2023/12/15 02:02:41;;;;;;;16.17;9.52;;;8.60;90.10;;;;;;5050861;28;20496;-58
2023/12/15 02:05:07;;;;;;;15.43;7.80;;;8.60;90.10;;;;;;5054286;28;20427;-57
2023/12/15 02:07:33;;;;;;;19.88;10.10;;;8.60;90.10;;;;;;5046354;28;20051;-68
2023/12/15 02:09:59;;;;;;;18.38;8.70;;;8.60;90.10;;;;;;5046294;28;20116;-68
2023/12/15 02:12:25;;;;;;;16.67;8.65;;;8.60;90.10;;;;;;5056870;28;20032;-69
2023/12/15 02:14:50;;;;;;;19.70;8.80;;;8.60;90.10;;;;;;5050590;28;20104;-69
2023/12/15 02:17:16;;;;;;;17.08;8.55;;;8.70;90.10;;;;;;5048714;28;20432;-58
2023/12/15 02:19:42;;;;;;;18.02;9.93;;;8.70;90.10;;;;;;5048689;28;20396;-58
2023/12/15 02:22:08;;;;;;;27.15;10.60;;;8.70;90.10;;;;;;5051604;28;20040;-58
2023/12/15 02:24:34;;;;;;;17.58;9.80;;;8.70;90.10;;;;;;5053859;28;20040;-68
2023/12/15 02:27:00;;;;;;;20.98;11.30;;;8.70;90.20;;;;;;5055123;28;20424;-69
2023/12/15 02:29:27;;;;;;;24.40;10.77;;;8.60;90.30;;;;;;5060860;28;20115;-69
2023/12/15 02:31:54;;;;;;;20.80;9.80;;;8.60;90.30;;;;;;5050071;28;20025;-58
2023/12/15 02:34:20;;;;;;;21.00;9.38;;;8.60;90.30;;;;;;5051032;28;20518;-58
2023/12/15 02:36:45;;;;;;;19.45;8.95;;;8.60;90.30;;;;;;5053664;28;20037;-69
2023/12/15 02:39:11;;;;;;;17.60;8.85;;;8.70;90.30;;;;;;5052671;28;20033;-69
2023/12/15 02:41:37;;;;;;;18.30;9.00;;;8.70;90.20;;;;;;5049819;28;20519;-58
2023/12/15 02:44:03;;;;;;;19.58;10.02;;;8.80;90.20;;;;;;5058135;28;20434;-58
2023/12/15 02:46:28;;;;;;;28.13;9.50;;;8.80;90.10;;;;;;5053567;28;20100;-58
2023/12/15 02:48:54;;;;;;;19.30;10.82;;;8.80;90.10;;;;;;5058086;28;20075;-58
2023/12/15 02:51:30;;;;;;;23.85;11.80;;;8.80;90.10;;;;;;5051953;28;20021;-58
2023/12/15 02:53:58;;;;;;;17.75;10.02;;;8.80;90.10;;;;;;5052283;28;20156;-58
2023/12/15 02:56:25;;;;;;;20.77;9.75;;;8.80;90.20;;;;;;5047150;28;20032;-58
2023/12/15 02:58:50;;;;;;;14.50;8.02;;;8.90;90.20;;;;;;5046770;28;20029;-58
2023/12/15 03:01:16;;;;;;;16.25;8.57;;;8.90;90.10;;;;;;5052522;28;20051;-58
2023/12/15 03:03:42;;;;;;;18.80;9.25;;;8.90;90.10;;;;;;5052133;28;20036;-58
2023/12/15 03:06:07;;;;;;;17.85;9.35;;;8.90;90.00;;;;;;5054775;28;20573;-58
2023/12/15 03:08:33;;;;;;;22.02;11.30;;;8.90;90.10;;;;;;5051201;28;20137;-69
2023/12/15 03:10:59;;;;;;;25.85;11.57;;;8.90;90.10;;;;;;5056930;28;20078;-69
2023/12/15 03:13:28;;;;;;;24.65;12.10;;;8.90;90.10;;;;;;5052731;28;20597;-58
2023/12/15 03:16:02;;;;;;;18.25;11.23;;;8.90;90.20;;;;;;5051879;28;20025;-58
2023/12/15 03:18:28;;;;;;;23.20;10.60;;;8.80;90.20;;;;;;5050294;28;20104;-58
2023/12/15 03:20:54;;;;;;;14.93;9.63;;;8.80;90.30;;;;;;5048902;28;20107;-58
2023/12/15 03:23:19;;;;;;;23.08;11.93;;;8.90;90.30;;;;;;5054386;28;20105;-69
2023/12/15 03:25:45;;;;;;;27.35;10.82;;;8.90;90.30;;;;;;5056432;28;20043;-58
2023/12/15 03:28:11;;;;;;;23.48;11.18;;;8.90;90.30;;;;;;5058093;28;20060;-59
2023/12/15 03:30:37;;;;;;;18.40;11.52;;;8.90;90.30;;;;;;5061027;28;20487;-59
2023/12/15 03:33:02;;;;;;;23.25;10.98;;;8.90;90.40;;;;;;5057716;28;20025;-59
2023/12/15 03:35:28;;;;;;;52.42;12.00;;;8.90;90.40;;;;;;5057571;28;20782;-69
2023/12/15 03:37:54;;;;;;;21.83;10.35;;;8.90;90.30;;;;;;5058671;28;20487;-69
2023/12/15 03:40:19;;;;;;;23.30;9.80;;;8.90;90.30;;;;;;5038155;28;20024;-69
2023/12/15 03:42:46;;;;;;;22.42;12.30;;;8.90;90.30;;;;;;5056533;28;20040;-59
2023/12/15 03:45:12;;;;;;;29.90;13.05;;;8.90;90.40;;;;;;5047100;28;20594;-58
2023/12/15 03:47:38;;;;;;;31.05;11.35;;;8.90;90.50;;;;;;5055861;28;20033;-58
2023/12/15 03:50:04;;;;;;;22.98;10.88;;;8.90;90.40;;;;;;5051605;28;20060;-59
2023/12/15 03:52:30;;;;;;;25.80;11.25;;;8.90;90.40;;;;;;5052175;28;20023;-59
2023/12/15 03:54:56;;;;;;;21.08;10.35;;;9.00;90.40;;;;;;5050302;28;20116;-69
2023/12/15 03:57:22;;;;;;;14.13;8.45;;;9.00;90.40;;;;;;5055048;28;20041;-69
2023/12/15 03:59:48;;;;;;;15.43;8.80;;;9.00;90.40;;;;;;5048431;28;20036;-59
2023/12/15 04:02:15;;;;;;;18.15;10.38;;;9.10;90.30;;;;;;5050415;28;20033;-58
2023/12/15 04:04:43;;;;;;;25.00;11.18;;;9.10;90.30;;;;;;5051776;28;20024;-58
2023/12/15 04:07:09;;;;;;;22.23;11.35;;;9.10;90.30;;;;;;5042919;28;20029;-58
2023/12/15 04:09:35;;;;;;;27.73;11.38;;;9.00;90.30;;;;;;5047300;28;20091;-69
2023/12/15 04:12:00;;;;;;;32.35;12.90;;;9.00;90.40;;;;;;5054578;28;20040;-69
2023/12/15 04:14:26;;;;;;;44.53;12.95;;;9.00;90.40;;;;;;5049764;28;20029;-58
2023/12/15 04:16:52;;;;;;;44.22;13.95;;;9.00;90.40;;;;;;5047085;28;20060;-69
2023/12/15 04:19:18;;;;;;;24.35;12.57;;;9.00;90.90;;;;;;5045942;28;20439;-69
2023/12/15 04:21:43;;;;;;;18.90;11.10;;;9.00;90.60;;;;;;5048446;28;20061;-69
2023/12/15 04:24:09;;;;;;;23.38;11.70;;;9.00;90.50;;;;;;5048534;28;20034;-69
2023/12/15 04:26:35;;;;;;;28.65;12.10;;;9.00;90.60;;;;;;5051497;28;20443;-69
2023/12/15 04:29:00;;;;;;;23.15;12.10;;;9.00;90.50;;;;;;5053528;28;20043;-69
2023/12/15 04:31:26;;;;;;;22.92;11.40;;;9.00;90.50;;;;;;5050037;28;20591;-69
2023/12/15 04:33:52;;;;;;;19.67;10.63;;;9.10;90.50;;;;;;5044032;28;20033;-69
2023/12/15 04:36:21;;;;;;;26.42;11.30;;;9.10;90.50;;;;;;5047350;28;20102;-69
2023/12/15 04:38:47;;;;;;;26.55;13.65;;;9.10;90.50;;;;;;5056808;28;20055;-59
2023/12/15 04:41:26;;;;;;;21.77;11.88;;;9.20;90.50;;;;;;5043465;28;20485;-69
2023/12/15 04:43:52;;;;;;;31.35;12.75;;;9.20;90.60;;;;;;5086086;28;20039;-69
2023/12/15 04:46:25;;;;;;;30.95;12.07;;;9.20;90.40;;;;;;5049963;28;20472;-69
2023/12/15 04:48:53;;;;;;;17.90;9.40;;;9.20;90.40;;;;;;5047229;28;20476;-69
2023/12/15 04:51:18;;;;;;;17.52;10.23;;;9.30;90.40;;;;;;5052206;28;20384;-69
2023/12/15 04:53:46;;;;;;;16.80;10.23;;;9.30;90.40;;;;;;5048079;28;20033;-69
2023/12/15 04:56:12;;;;;;;24.77;10.77;;;9.30;90.30;;;;;;5052980;28;20080;-69
2023/12/15 04:58:38;;;;;;;34.63;12.07;;;9.40;90.30;;;;;;5047269;28;20032;-59
2023/12/15 05:01:04;;;;;;;23.33;10.30;;;9.40;90.20;;;;;;5048531;28;20071;-59
2023/12/15 05:03:33;;;;;;;24.35;12.40;;;9.30;90.20;;;;;;5052748;28;20158;-59
2023/12/15 05:05:59;;;;;;;27.05;12.07;;;9.40;90.30;;;;;;5044833;28;20479;-70
2023/12/15 05:08:25;;;;;;;20.88;11.52;;;9.40;90.30;;;;;;5045929;28;20377;-69
2023/12/15 05:10:51;;;;;;;16.75;10.02;;;9.40;90.30;;;;;;5051600;28;20085;-70
2023/12/15 05:13:16;;;;;;;25.52;10.98;;;9.40;90.30;;;;;;5056967;28;20025;-70
2023/12/15 05:15:42;;;;;;;22.60;12.30;;;9.40;90.40;;;;;;5049766;28;20032;-58
2023/12/15 05:18:08;;;;;;;27.08;12.18;;;9.40;90.40;;;;;;5046730;28;20033;-70
2023/12/15 05:20:38;;;;;;;29.60;10.85;;;9.40;90.40;;;;;;5050692;28;20037;-70
2023/12/15 05:23:04;;;;;;;31.95;12.07;;;9.40;90.40;;;;;;5053399;28;20013;-69
2023/12/15 05:25:30;;;;;;;22.50;11.85;;;9.40;90.40;;;;;;5046450;28;20111;-70
2023/12/15 05:27:56;;;;;;;29.60;13.77;;;9.40;90.30;;;;;;5054249;28;20464;-70
2023/12/15 05:30:21;;;;;;;22.48;10.35;;;9.40;90.40;;;;;;5046926;28;20393;-69
2023/12/15 05:32:47;;;;;;;18.65;10.10;;;9.40;90.40;;;;;;5045802;28;20104;-59
2023/12/15 05:35:13;;;;;;;19.63;9.18;;;9.40;90.40;;;;;;5052055;28;20104;-59
2023/12/15 05:37:39;;;;;;;21.90;12.23;;;9.40;90.40;;;;;;5050273;28;20155;-69
2023/12/15 05:40:05;;;;;;;14.50;8.75;;;9.40;90.40;;;;;;5052711;28;20112;-69
2023/12/15 05:42:31;;;;;;;19.42;8.88;;;9.40;90.40;;;;;;5042799;28;20041;-59
2023/12/15 05:44:56;;;;;;;12.80;7.60;;;9.50;90.40;;;;;;5051494;28;20033;-58
2023/12/15 05:47:22;;;;;;;22.75;9.90;;;9.50;90.30;;;;;;5051341;28;20045;-59
2023/12/15 05:49:48;;;;;;;14.20;6.25;;;9.50;90.20;;;;;;5045730;28;20125;-59
2023/12/15 05:52:14;;;;;;;15.18;7.55;;;9.60;90.20;;;;;;5054027;28;20036;-58
2023/12/15 05:54:41;;;;;;;11.77;6.65;;;9.60;90.20;;;;;;5055872;28;20029;-58
2023/12/15 05:57:06;;;;;;;16.42;7.25;;;9.60;90.20;;;;;;5051659;28;20388;-59
2023/12/15 05:59:32;;;;;;;14.25;8.52;;;9.70;90.10;;;;;;5058189;28;20029;-69
2023/12/15 06:01:58;;;;;;;15.93;7.60;;;9.70;90.10;;;;;;5053385;28;20033;-59
2023/12/15 06:04:24;;;;;;;13.02;7.97;;;9.60;90.10;;;;;;5053841;28;20043;-69
2023/12/15 06:06:50;;;;;;;13.85;7.90;;;9.60;90.10;;;;;;5051176;28;20091;-58
2023/12/15 06:09:16;;;;;;;14.70;7.80;;;9.60;90.40;;;;;;5048397;28;20128;-69
2023/12/15 06:11:42;;;;;;;14.07;8.77;;;9.60;90.20;;;;;;5055905;28;20025;-69
2023/12/15 06:14:11;;;;;;;14.38;6.85;;;9.60;90.10;;;;;;5051334;28;20108;-69
2023/12/15 06:16:37;;;;;;;18.05;9.00;;;9.70;90.10;;;;;;5049915;28;20075;-58
2023/12/15 06:19:03;;;;;;;20.52;10.55;;;9.70;90.10;;;;;;5048046;28;20033;-69
2023/12/15 06:21:28;;;;;;;20.58;9.75;;;9.70;90.10;;;;;;5047214;28;20056;-69
2023/12/15 06:23:55;;;;;;;29.77;10.48;;;9.70;90.10;;;;;;5043169;28;20024;-69
2023/12/15 06:26:22;;;;;;;21.08;10.40;;;9.70;90.10;;;;;;5044414;28;20125;-69
2023/12/15 06:28:49;;;;;;;19.85;10.50;;;9.70;90.10;;;;;;5048151;28;20028;-70
2023/12/15 06:31:15;;;;;;;17.00;9.50;;;9.70;90.10;;;;;;5052283;28;20044;-70
2023/12/15 06:33:41;;;;;;;19.10;9.52;;;9.70;90.10;;;;;;5043477;28;20521;-69
2023/12/15 06:36:08;;;;;;;19.35;9.65;;;9.60;90.40;;;;;;5046217;28;20025;-58
2023/12/15 06:38:39;;;;;;;17.50;8.50;;;9.60;90.20;;;;;;5047723;28;20112;-58
2023/12/15 06:41:05;;;;;;;21.95;8.80;;;9.70;90.20;;;;;;5050826;28;20033;-58
2023/12/15 06:43:31;;;;;;;27.05;13.38;;;9.70;90.10;;;;;;5056481;28;20056;-58
2023/12/15 06:45:57;;;;;;;22.63;11.88;;;9.70;90.10;;;;;;5051180;28;20017;-58
2023/12/15 06:48:23;;;;;;;16.67;9.40;;;9.70;90.20;;;;;;5058761;28;20082;-58
2023/12/15 06:50:48;;;;;;;21.58;9.52;;;9.70;90.20;;;;;;5047132;28;20104;-58
2023/12/15 06:53:14;;;;;;;17.23;8.82;;;9.70;90.20;;;;;;5062253;28;20017;-58
2023/12/15 06:55:39;;;;;;;21.15;9.63;;;9.70;90.10;;;;;;5058341;28;20136;-62
2023/12/15 06:58:05;;;;;;;17.58;8.00;;;9.70;90.10;;;;;;5052666;28;20033;-58
2023/12/15 07:00:32;;;;;;;28.38;9.05;;;9.70;90.10;;;;;;5059516;28;20045;-58
2023/12/15 07:02:57;;;;;;;13.45;8.23;;;9.80;90.10;;;;;;5059828;28;20036;-58
2023/12/15 07:05:23;;;;;;;19.80;8.85;;;9.80;90.10;;;;;;5056518;28;20033;-58
2023/12/15 07:07:48;;;;;;;20.50;10.18;;;9.80;90.10;;;;;;5053326;28;20052;-58
2023/12/15 07:10:16;;;;;;;21.48;9.60;;;9.70;90.00;;;;;;5051601;28;20033;-69
2023/12/15 07:12:42;;;;;;;23.23;10.73;;;9.80;90.10;;;;;;5049177;28;20032;-69
2023/12/15 07:15:08;;;;;;;19.60;10.27;;;9.70;90.10;;;;;;5048611;28;20491;-69
2023/12/15 07:17:34;;;;;;;16.17;9.30;;;9.70;90.10;;;;;;5059691;28;20098;-69
2023/12/15 07:19:59;;;;;;;19.80;8.85;;;9.70;90.10;;;;;;5049368;28;20033;-69
2023/12/15 07:22:25;;;;;;;24.50;9.10;;;9.80;90.10;;;;;;5049650;28;20024;-69
2023/12/15 07:24:51;;;;;;;14.52;8.57;;;9.80;90.00;;;;;;5054059;28;20409;-69
2023/12/15 07:27:16;;;;;;;13.73;8.15;;;9.80;90.10;;;;;;5053170;28;20513;-69
2023/12/15 07:29:42;;;;;;;17.10;8.18;;;9.80;90.10;;;;;;5049517;28;20037;-69
2023/12/15 07:32:07;;;;;;;16.70;8.57;;;9.80;90.10;;;;;;5057489;28;20024;-69
2023/12/15 07:34:33;;;;;;;14.55;8.43;;;9.80;90.00;;;;;;5050999;28;20052;-69
2023/12/15 07:36:59;;;;;;;15.82;7.97;;;9.90;90.00;;;;;;5058050;28;20415;-69
2023/12/15 07:39:24;;;;;;;18.30;7.50;;;9.90;90.00;;;;;;5055862;28;20078;-58
2023/12/15 07:41:50;;;;;;;16.10;8.57;;;9.90;90.00;;;;;;5054847;28;20059;-58
2023/12/15 07:44:17;;;;;;;11.65;7.75;;;9.90;90.00;;;;;;5053561;28;20063;-58
2023/12/15 07:46:43;;;;;;;24.90;10.07;;;9.90;90.00;;;;;;5058676;28;20060;-58
2023/12/15 07:49:09;;;;;;;20.27;9.77;;;9.90;90.00;;;;;;5046403;28;20032;-70
2023/12/15 07:51:35;;;;;;;20.80;8.15;;;9.80;90.00;;;;;;5048344;28;20116;-69
2023/12/15 07:54:01;;;;;;;19.23;9.18;;;9.80;90.10;;;;;;5052309;28;20480;-69
2023/12/15 07:56:28;;;;;;;19.30;9.05;;;9.80;90.10;;;;;;5054134;28;20098;-69
2023/12/15 07:58:55;;;;;;;14.07;8.68;;;9.80;90.10;;;;;;5055577;28;20025;-58
2023/12/15 08:01:22;;;;;;;15.35;7.38;;;9.80;90.10;;;;;;5055487;28;20456;-69
2023/12/15 08:03:50;;;;;;;14.45;7.85;;;9.90;90.10;;;;;;5059035;28;20025;-58
2023/12/15 08:06:16;;;;;;;11.55;7.15;;;9.90;90.10;;;;;;5049120;28;20039;-58
2023/12/15 08:08:44;;;;;;;19.42;7.07;;;9.90;90.10;;;;;;5051895;28;20530;-69
2023/12/15 08:11:10;;;;;;;13.95;7.28;;;9.90;90.10;;;;;;5044619;28;20037;-58
2023/12/15 08:13:40;;;;;;;17.20;10.23;;;9.90;90.10;;;;;;5055238;28;20024;-69
2023/12/15 08:16:07;;;;;;;18.70;7.70;;;9.90;90.00;;;;;;5051211;28;20096;-69
2023/12/15 08:18:33;;;;;;;19.27;8.35;;;9.90;90.10;;;;;;5051294;28;20025;-69
2023/12/15 08:20:59;;;;;;;11.25;7.45;;;9.90;90.10;;;;;;5054956;28;20025;-69
2023/12/15 08:23:26;;;;;;;21.60;9.85;;;9.90;90.10;;;;;;5046772;28;20086;-57
2023/12/15 08:25:52;;;;;;;13.05;6.32;;;10.00;90.10;;;;;;5050477;28;20055;-69
2023/12/15 08:28:19;;;;;;;13.43;7.82;;;10.00;90.10;;;;;;5055212;28;20484;-69
2023/12/15 08:30:45;;;;;;;15.75;7.55;;;10.00;90.00;;;;;;5049840;28;20577;-70
2023/12/15 08:33:11;;;;;;;10.60;5.97;;;10.10;90.00;;;;;;5057051;28;20450;-59
2023/12/15 08:35:37;;;;;;;17.13;7.95;;;10.10;90.00;;;;;;5041521;28;20034;-58
2023/12/15 08:38:03;;;;;;;20.20;8.32;;;10.10;90.00;;;;;;5052886;28;20065;-58
2023/12/15 08:40:29;;;;;;;14.07;7.95;;;10.00;90.00;;;;;;5046134;28;20040;-58
2023/12/15 08:42:54;;;;;;;15.50;6.70;;;10.10;90.00;;;;;;5049805;28;20044;-69
2023/12/15 08:45:20;;;;;;;12.25;7.53;;;10.10;90.00;;;;;;5040372;28;20455;-69
2023/12/15 08:47:46;;;;;;;10.63;5.72;;;10.10;90.00;;;;;;5047566;28;20040;-59
2023/12/15 08:50:11;;;;;;;12.95;7.60;;;10.10;90.00;;;;;;5047449;28;20074;-67
2023/12/15 08:52:37;;;;;;;17.27;8.02;;;10.10;90.00;;;;;;5047784;28;20108;-71
2023/12/15 08:55:03;;;;;;;18.48;8.20;;;10.20;90.00;;;;;;5052307;28;20029;-69
2023/12/15 08:57:29;;;;;;;11.38;6.55;;;10.20;90.00;;;;;;5053898;28;20051;-59
2023/12/15 08:59:55;;;;;;;13.52;6.95;;;10.20;89.90;;;;;;5050609;28;20025;-59
2023/12/15 09:02:20;;;;;;;14.05;6.57;;;10.20;90.20;;;;;;5053828;28;20483;-59
2023/12/15 09:04:46;;;;;;;14.20;7.45;;;10.20;89.90;;;;;;5058263;28;20029;-59
2023/12/15 09:07:12;;;;;;;15.70;7.97;;;10.20;89.90;;;;;;5049998;28;20037;-70
2023/12/15 09:09:39;;;;;;;10.27;7.05;;;10.20;89.90;;;;;;5049888;28;20053;-70
2023/12/15 09:12:06;;;;;;;13.93;8.25;;;10.20;89.90;;;;;;5046806;28;20408;-69
2023/12/15 09:14:32;;;;;;;13.45;7.35;;;10.30;89.90;;;;;;5039247;28;20013;-69
2023/12/15 09:16:58;;;;;;;12.38;7.00;;;10.30;89.90;;;;;;5048295;28;20154;-69
2023/12/15 09:19:25;;;;;;;11.98;6.32;;;10.30;89.80;;;;;;5047719;28;20108;-70
2023/12/15 09:21:52;;;;;;;8.77;5.85;;;10.40;89.90;;;;;;5047703;28;20932;-59
2023/12/15 09:24:18;;;;;;;13.05;6.70;;;10.40;89.80;;;;;;5052816;28;20093;-58
2023/12/15 09:26:45;;;;;;;16.67;7.63;;;10.40;89.80;;;;;;5050527;28;20044;-58
2023/12/15 09:29:14;;;;;;;13.52;6.60;;;10.30;89.70;;;;;;5052034;28;20024;-59
2023/12/15 09:31:40;;;;;;;12.10;6.60;;;10.30;89.90;;;;;;5048926;28;20384;-58
2023/12/15 09:34:06;;;;;;;14.05;5.97;;;10.40;89.90;;;;;;5051693;28;20029;-58
2023/12/15 09:36:32;;;;;;;11.57;5.75;;;10.40;89.90;;;;;;5052602;28;20021;-58
2023/12/15 09:38:58;;;;;;;10.63;5.82;;;10.40;89.80;;;;;;5048015;28;20878;-58
2023/12/15 09:41:24;;;;;;;9.55;4.90;;;10.50;89.80;;;;;;5044174;28;20404;-57
2023/12/15 09:43:50;;;;;;;10.68;6.88;;;10.50;89.70;;;;;;5055034;28;20474;-68
2023/12/15 09:46:16;;;;;;;14.15;6.63;;;10.60;89.60;;;;;;5047419;28;20498;-68
2023/12/15 09:48:43;;;;;;;9.50;5.97;;;10.60;89.50;;;;;;5053323;28;20036;-68
2023/12/15 09:51:22;;;;;;;9.80;5.20;;;10.60;89.50;;;;;;5042531;28;20029;-68
2023/12/15 09:53:49;;;;;;;10.00;5.10;;;10.70;89.40;;;;;;5041928;28;20032;-68
2023/12/15 09:56:15;;;;;;;7.85;4.30;;;10.70;89.40;;;;;;5055933;28;20032;-57
2023/12/15 09:58:42;;;;;;;12.32;6.75;;;10.80;89.30;;;;;;5039330;28;20069;-57
2023/12/15 10:01:09;;;;;;;6.40;4.43;;;10.80;89.20;;;;;;5049877;28;20316;-57
2023/12/15 10:03:35;;;;;;;11.20;5.25;;;10.80;89.20;;;;;;5042040;28;20029;-58
2023/12/15 10:06:01;;;;;;;7.60;3.95;;;10.90;89.30;;;;;;5051246;28;20036;-58
2023/12/15 10:08:39;;;;;;;17.38;4.50;;;10.90;89.20;;;;;;5045853;28;20416;-58
2023/12/15 10:11:05;;;;;;;8.32;4.72;;;10.90;89.10;;;;;;5051188;28;20536;-58
2023/12/15 10:13:31;;;;;;;6.97;4.15;;;10.80;89.10;;;;;;5044131;28;20152;-57
2023/12/15 10:15:57;;;;;;;8.32;3.70;;;10.90;89.30;;;;;;5045052;28;20017;-58
2023/12/15 10:18:23;;;;;;;14.35;4.95;;;10.90;89.10;;;;;;5049942;28;20038;-58
2023/12/15 10:20:49;;;;;;;13.48;5.00;;;10.90;89.00;;;;;;5045826;28;20539;-58
2023/12/15 10:23:15;;;;;;;10.15;3.80;;;10.90;89.00;;;;;;5040528;28;20399;-58
2023/12/15 10:25:52;;;;;;;7.88;4.20;;;10.90;89.10;;;;;;5050993;28;20116;-58
2023/12/15 10:28:18;;;;;;;5.75;3.45;;;10.90;89.10;;;;;;5048299;28;20041;-58
2023/12/15 10:30:43;;;;;;;13.60;5.53;;;10.90;89.20;;;;;;5035759;28;20088;-57
2023/12/15 10:33:09;;;;;;;11.57;4.63;;;10.90;89.00;;;;;;5032549;28;20035;-58
2023/12/15 10:35:37;;;;;;;10.82;4.60;;;10.90;89.10;;;;;;5049430;28;20029;-57
2023/12/15 10:38:03;;;;;;;6.03;4.20;;;11.00;89.10;;;;;;5057794;28;20029;-58
2023/12/15 10:40:30;;;;;;;7.05;3.97;;;11.00;89.00;;;;;;5052939;28;20414;-58
2023/12/15 10:42:57;;;;;;;5.10;3.08;;;11.00;89.00;;;;;;5035403;28;20276;-57
2023/12/15 10:45:22;;;;;;;15.63;3.85;;;11.10;88.90;;;;;;5053421;28;20074;-58
2023/12/15 10:47:49;;;;;;;8.85;4.25;;;11.10;88.80;;;;;;5040166;28;20033;-67
2023/12/15 10:50:16;;;;;;;6.53;3.90;;;11.10;88.80;;;;;;5046996;28;20040;-67
2023/12/15 10:52:44;;;;;;;9.77;4.45;;;11.10;88.70;;;;;;5045050;28;20036;-58
2023/12/15 10:55:12;;;;;;;5.82;2.95;;;11.00;88.80;;;;;;5049623;28;20091;-58
2023/12/15 10:57:38;;;;;;;9.23;4.00;;;11.00;88.80;;;;;;5037991;28;20425;-58
2023/12/15 11:00:05;;;;;;;6.97;3.33;;;11.10;88.70;;;;;;5043499;28;20071;-58
2023/12/15 11:02:33;;;;;;;6.10;3.95;;;11.10;88.70;;;;;;5038740;28;20056;-58
2023/12/15 11:04:59;;;;;;;10.43;4.63;;;11.10;88.60;;;;;;5045170;28;20033;-58
2023/12/15 11:07:27;;;;;;;9.90;5.30;;;11.10;88.50;;;;;;5044677;28;20036;-59
2023/12/15 11:09:52;;;;;;;17.98;5.95;;;11.10;88.50;;;;;;5045811;28;20046;-58
2023/12/15 11:12:27;;;;;;;7.28;3.60;;;11.10;88.30;;;;;;5044825;28;20025;-58
2023/12/15 11:14:57;;;;;;;9.07;2.97;;;11.00;88.40;;;;;;5050201;28;20114;-58
2023/12/15 11:17:22;;;;;;;7.68;3.60;;;11.10;88.50;;;;;;5047051;28;20032;-58
2023/12/15 11:19:51;;;;;;;7.65;3.95;;;11.10;88.30;;;;;;5048739;28;20487;-59
2023/12/15 11:22:17;;;;;;;11.50;3.97;;;11.10;88.20;;;;;;5043985;28;20072;-59
2023/12/15 11:24:43;;;;;;;8.30;3.72;;;11.10;88.20;;;;;;5051390;28;20037;-59
2023/12/15 11:27:13;;;;;;;5.75;3.45;;;11.10;88.30;;;;;;5046706;28;20496;-59
2023/12/15 11:29:40;;;;;;;7.45;3.78;;;11.20;88.20;;;;;;5049620;28;20538;-58
2023/12/15 11:32:33;;;;;;;18.15;4.15;;;11.20;88.00;;;;;;5036568;28;20021;-58
2023/12/15 11:34:59;;;;;;;10.57;3.40;;;11.30;87.70;;;;;;5045039;28;20032;-58
2023/12/15 11:37:26;;;;;;;11.80;4.30;;;11.20;87.80;;;;;;5028162;28;20045;-58
2023/12/15 11:39:53;;;;;;;8.68;4.40;;;11.20;87.50;;;;;;5043873;28;20052;-58
2023/12/15 11:42:20;;;;;;;9.68;2.85;;;11.20;87.60;;;;;;5046791;28;20024;-58
2023/12/15 11:44:46;;;;;;;8.57;2.90;;;11.20;87.60;;;;;;5046017;28;20452;-59
2023/12/15 11:47:12;;;;;;;5.97;3.20;;;11.20;87.60;;;;;;5050703;28;20036;-58
2023/12/15 11:49:42;;;;;;;7.35;3.45;;;11.30;87.50;;;;;;5045317;28;20036;-58
2023/12/15 11:52:10;;;;;;;7.03;3.67;;;11.30;87.40;;;;;;5049088;28;20053;-58
2023/12/15 11:54:36;;;;;;;9.63;3.25;;;11.40;87.40;;;;;;5048407;28;20025;-59
2023/12/15 11:57:05;;;;;;;4.15;3.10;;;11.50;87.20;;;;;;5050178;28;20108;-58
2023/12/15 11:59:44;;;;;;;6.68;2.88;;;11.50;86.70;;;;;;5049876;28;20037;-59
2023/12/15 12:02:14;;;;;;;5.43;4.22;;;11.50;86.80;;;;;;5038934;28;20091;-61
2023/12/15 12:04:43;;;;;;;6.63;2.92;;;11.60;86.90;;;;;;5041610;28;20028;-71
2023/12/15 12:07:11;;;;;;;11.80;3.85;;;11.60;86.70;;;;;;5044376;28;20033;-71
2023/12/15 12:09:37;;;;;;;5.43;3.13;;;11.60;86.70;;;;;;5043624;28;20098;-72
2023/12/15 12:12:03;;;;;;;9.25;2.75;;;11.70;86.70;;;;;;5052051;28;20017;-59
2023/12/15 12:14:28;;;;;;;6.68;4.18;;;11.70;86.60;;;;;;5045395;28;20020;-60
2023/12/15 12:16:59;;;;;;;2.78;1.98;;;11.70;86.40;;;;;;5048749;28;20039;-60
2023/12/15 12:19:24;;;;;;;3.35;2.67;;;11.80;86.50;;;;;;5043948;28;20025;-59
2023/12/15 12:21:53;;;;;;;7.85;4.03;;;11.90;86.40;;;;;;5043081;28;20036;-60
2023/12/15 12:24:24;;;;;;;6.93;3.70;;;12.10;86.10;;;;;;5043965;28;20025;-59
2023/12/15 12:26:51;;;;;;;12.07;3.80;;;12.20;85.40;;;;;;5056910;28;20490;-59
2023/12/15 12:29:17;;;;;;;9.35;3.53;;;12.30;84.40;;;;;;5050245;28;20041;-59
2023/12/15 12:31:42;;;;;;;6.85;3.30;;;12.20;84.40;;;;;;5054062;28;20055;-70
2023/12/15 12:34:08;;;;;;;7.68;3.35;;;12.10;84.10;;;;;;5051535;28;20032;-69
2023/12/15 12:36:35;;;;;;;11.45;4.05;;;11.90;83.90;;;;;;5054936;28;20027;-69
2023/12/15 12:39:00;;;;;;;7.47;3.22;;;11.80;84.10;;;;;;5050560;28;20033;-69